Flight Track Log - Related Links

Times and Time Zones

All times are in EDT time to prevent confusion due to time zone crossing. See the UAL6118 flight status page for this flight to view local times or setup timezone preferences in your user account.


Time Position Orientation Groundspeed Altitude Reporting Facility
EDT Latitude Longitude Course Direction KTS MPH feet Rate Location/Type
Sun 05:15:44 PM 45.2833 -75.6667 251° West 170 196 1,700  Level Toronto Center
Sun 05:16:44 PM 45.2667 -75.7167 245° Southwest 190 219 3,700 1,750 Climbing Toronto Center
Sun 05:17:44 PM 45.2833 -75.8167 283° West 240 276 5,200 1,950 Climbing Toronto Center
Sun 05:18:44 PM 45.2833 -75.9167 270° West 260 299 7,600 2,200 Climbing Toronto Center
Sun 05:19:44 PM 45.3000 -76.0333 282° West 270 311 9,600 1,600 Climbing Toronto Center
Sun 05:20:00 PM 45.0704 -76.6284 251° West  Level FlightAware Approximate
Sun 05:20:44 PM 45.3333 -76.1500 292° West 290 334 10,800  Level Toronto Center
Sun 05:21:00 PM 45.0373 -76.7669 251° West  Level FlightAware Approximate
Sun 05:22:00 PM 45.2941 -76.3275 251° West  Level Estimated
Sun 05:22:44 PM 45.3500 -76.3833 251° West 330 380 13,500  Level Toronto Center
Sun 05:23:44 PM 45.3167 -76.5333 253° West 350 403 14,400 1,050 Climbing Toronto Center
Sun 05:24:44 PM 45.3000 -76.6667 260° West 360 414 15,600 1,150 Climbing Toronto Center
Sun 05:25:44 PM 45.2667 -76.7833 248° West 360 414 16,700 1,100 Climbing Toronto Center
Sun 05:26:44 PM 45.2167 -76.9333 245° Southwest 370 426 17,800 950 Climbing Toronto Center
Sun 05:27:44 PM 45.1833 -77.0833 253° West 370 426 18,600 950 Climbing Toronto Center
Sun 05:28:44 PM 45.1500 -77.2167 251° West 380 437 19,700 950 Climbing Toronto Center
Sun 05:29:44 PM 45.1333 -77.3667 261° West 380 437 20,500 800 Climbing Toronto Center
Sun 05:30:44 PM 45.0833 -77.5000 242° Southwest 390 449 21,300 850 Climbing Toronto Center
Sun 05:31:44 PM 45.0500 -77.6500 253° West 400 460 22,200 850 Climbing Toronto Center
Sun 05:32:44 PM 45.0167 -77.8000 253° West 400 460 23,000 950 Climbing Toronto Center
Sun 05:33:44 PM 44.9667 -77.9667 247° West 400 460 24,100 1,150 Climbing Toronto Center
Sun 05:34:44 PM 44.9333 -78.1000 251° West 400 460 25,300 1,200 Climbing Toronto Center
Sun 05:35:44 PM 44.9000 -78.2500 253° West 390 449 26,500 1,150 Climbing Toronto Center
Sun 05:36:44 PM 44.8667 -78.3833 251° West 380 437 27,600 1,100 Climbing Toronto Center
Sun 05:37:44 PM 44.8333 -78.5333 253° West 370 426 28,700 900 Climbing Toronto Center
Sun 05:38:44 PM 44.8000 -78.6500 248° West 370 426 29,400 700 Climbing Toronto Center
Sun 05:39:44 PM 44.7667 -78.7833 251° West 380 437 30,100 700 Climbing Toronto Center
Sun 05:40:44 PM 44.7167 -78.9333 245° Southwest 380 437 30,800 700 Climbing Toronto Center
Sun 05:41:44 PM 44.6667 -79.0667 242° Southwest 390 449 31,500 750 Climbing Toronto Center
Sun 05:42:44 PM 44.6167 -79.2167 245° Southwest 400 460 32,300 750 Climbing Toronto Center
Sun 05:43:44 PM 44.5667 -79.3500 242° Southwest 400 460 33,000 700 Climbing Toronto Center
Sun 05:44:44 PM 44.5167 -79.5000 245° Southwest 400 460 33,700 700 Climbing Toronto Center
Sun 05:45:44 PM 44.4667 -79.6333 242° Southwest 410 472 34,400 750 Climbing Toronto Center
Sun 05:46:44 PM 44.4000 -79.7667 235° Southwest 410 472 35,200 750 Climbing Toronto Center
Sun 05:47:44 PM 44.3500 -79.9167 245° Southwest 400 460 35,900 400 Climbing Toronto Center
Sun 05:48:44 PM 44.3000 -80.0500 242° Southwest 400 460 36,000 50 Climbing Toronto Center
Sun 05:49:44 PM 44.2500 -80.1833 242° Southwest 400 460 36,000  Level Toronto Center
Sun 05:50:44 PM 44.2000 -80.3000 239° Southwest 400 460 36,000  Level Toronto Center
Sun 05:51:44 PM 44.1500 -80.4500 245° Southwest 400 460 36,000  Level Toronto Center
Sun 05:52:44 PM 44.1000 -80.5833 242° Southwest 400 460 36,000  Level Toronto Center
Sun 05:53:44 PM 44.0500 -80.7167 242° Southwest 390 449 36,000  Level Toronto Center
Sun 05:54:44 PM 43.9833 -80.8667 238° Southwest 400 460 36,000  Level Toronto Center
Sun 05:56:24 PM 43.9092 -81.1047 247° West 447 514 36,000  Level Cleveland Center
Sun 05:57:24 PM 43.8544 -81.2453 242° Southwest 440 506 36,000  Level Cleveland Center
Sun 05:57:44 PM 43.8167 -81.2667 202° Southwest 400 460 36,000  Level Toronto Center
Sun 05:58:44 PM 43.7667 -81.4167 245° Southwest 400 460 36,000  Level Toronto Center
Sun 05:59:44 PM 43.7167 -81.5500 243° Southwest 400 460 36,000  Level Toronto Center
Sun 06:00:44 PM 43.6667 -81.6833 243° Southwest 400 460 36,000  Level Toronto Center
Sun 06:01:44 PM 43.6167 -81.8167 243° Southwest 400 460 36,000  Level Toronto Center
Sun 06:02:44 PM 43.5500 -81.9500 235° Southwest 400 460 36,000  Level Toronto Center
Sun 06:03:44 PM 43.5000 -82.1000 245° Southwest 400 460 36,000  Level Toronto Center
Sun 06:04:24 PM 43.4764 -82.1853 249° West 410 472 36,000  Level Cleveland Center
Sun 06:05:24 PM 43.4225 -82.3153 240° Southwest 410 472 36,000  Level Cleveland Center
Sun 06:06:24 PM 43.3683 -82.4536 242° Southwest 410 472 36,000 -75 Level Cleveland Center
Sun 06:06:44 PM 43.3333 -82.5000 224° Southwest 410 472 35,900 -825 Descending Toronto Center
Sun 06:07:44 PM 43.2833 -82.6167 240° Southwest 400 460 34,900 -1,140 Descending Toronto Center
Sun 06:08:24 PM 43.2553 -82.7239 250° West 410 472 34,000 -1,620 Descending Cleveland Center
Sun 06:09:24 PM 43.2128 -82.8678 248° West 410 472 32,200 -1,550 Descending Cleveland Center
Sun 06:10:24 PM 43.1703 -83.0142 248° West 415 478 30,900 -1,100 Descending Cleveland Center
Sun 06:11:24 PM 43.1294 -83.1633 249° West 420 483 30,000 -450 Descending Cleveland Center
Sun 06:12:24 PM 43.0886 -83.3153 250° West 427 491 30,000  Level Cleveland Center
Sun 06:13:24 PM 43.0472 -83.4669 250° West 427 491 30,000  Level Cleveland Center
Sun 06:14:24 PM 43.0017 -83.6181 248° West 427 491 30,000  Level Cleveland Center
Sun 06:15:24 PM 42.9622 -83.7722 251° West 427 491 30,000  Level Cleveland Center
Sun 06:16:24 PM 42.9472 -83.9361 263° West 427 491 30,000  Level Cleveland Center
Sun 06:18:17 PM 42.9194 -84.2319 263° West 436 502 30,000  Level Chicago Center
Sun 06:19:19 PM 42.9031 -84.3953 262° West 436 502 30,000  Level Chicago Center
Sun 06:20:21 PM 42.8867 -84.5597 262° West 439 505 30,000  Level Chicago Center
Sun 06:21:23 PM 42.8703 -84.7219 262° West 434 499 30,000  Level Chicago Center
Sun 06:22:25 PM 42.8497 -84.9181 262° West 435 501 30,000  Level Chicago Center
Sun 06:23:27 PM 42.8319 -85.0825 262° West 438 504 30,000  Level Chicago Center
Sun 06:24:30 PM 42.8150 -85.2458 262° West 437 503 30,000  Level Chicago Center
Sun 06:25:32 PM 42.7967 -85.4081 261° West 434 499 30,000 -484 Level Chicago Center
Sun 06:26:34 PM 42.7742 -85.5714 259° West 436 502 29,000 -1,597 Descending Chicago Center
Sun 06:27:36 PM 42.7439 -85.7358 256° West 442 509 26,700 -2,371 Descending Chicago Center
Sun 06:28:38 PM 42.7136 -85.9011 256° West 447 514 24,100 -2,661 Descending Chicago Center
Sun 06:29:40 PM 42.6789 -86.0942 256° West 438 504 21,200 -1,984 Descending Chicago Center
Sun 06:30:42 PM 42.6508 -86.2506 256° West 429 494 20,000 -581 Descending Chicago Center
Sun 06:31:44 PM 42.6208 -86.4022 255° West 417 480 20,000 -677 Level Chicago Center
Sun 06:33:00 PM 42.5778 -86.5639 256° West  Level FlightAware Approximate
Sun 06:33:48 PM 42.5633 -86.7142 256° West 415 478 17,900  Level Chicago Center
Sun 06:34:50 PM 42.5256 -86.8556 250° West 403 464 15,900 -2,226 Descending Chicago Center
Sun 06:35:52 PM 42.4814 -87.0175 250° West 392 451 13,300 -2,256 Descending Chicago Center
Sun 06:36:55 PM 42.4439 -87.1472 249° West 375 432 11,200 -1,536 Descending Chicago Center
Sun 06:37:57 PM 42.4094 -87.2733 250° West 363 418 10,100 -581 Descending Chicago Center
Sun 06:38:59 PM 42.3775 -87.3947 250° West 352 405 10,000 -97 Descending Chicago Center
Sun 06:40:01 PM 42.3422 -87.5175 249° West 351 404 9,900 -435 Descending Chicago Center
Sun 06:41:03 PM 42.2681 -87.6097 223° Southwest 294 338 9,100 -1,210 Descending Chicago Center
Sun 06:42:05 PM 42.2069 -87.6747 218° Southwest 283 326 7,400 -1,016 Descending Chicago Center
Sun 06:43:07 PM 42.1483 -87.7364 218° Southwest 272 313 7,000 -131 Descending Chicago Center
Sun 06:44:22 PM 42.1000 -87.8500 240° Southwest 283 326 7,100 47 Climbing Chicago TRACON
Sun 06:45:16 PM 42.1000 -87.9333 270° West 294 338 7,100 -50 Level Chicago TRACON
Sun 06:46:22 PM 42.0833 -88.0667 260° West 290 334 7,000 -555 Descending Chicago TRACON
Sun 06:47:15 PM 42.0800 -88.1453 267° West 285 328 6,000 -1,200 Descending Chicago Center
Sun 06:48:17 PM 42.0667 -88.2422 260° West 274 315 4,700 -968 Descending Chicago Center
Sun 06:49:19 PM 42.0558 -88.3225 260° West 241 277 4,000 -194 Descending Chicago Center
Sun 06:51:23 PM 41.9833 -88.3167 177° South 177 204 4,100 34 Climbing Chicago TRACON
Sun 06:52:17 PM 41.9667 -88.2500 109° East 181 208 4,100 -53 Level Chicago TRACON
Sun 06:53:17 PM 41.9667 -88.1833 90° East 181 208 4,000 -300 Descending Chicago TRACON
Sun 06:54:17 PM 41.9667 -88.1167 90° East 179 206 3,500 -714 Descending Chicago TRACON
Sun 06:55:23 PM 41.9667 -88.0500 90° East 175 201 2,500 -800 Descending Chicago TRACON
Sun 06:56:17 PM 41.9667 -88.0000 90° East 133 153 1,900 -737 Descending Chicago TRACON
Sun 06:57:17 PM 41.9667 -87.9500 90° East 134 154 1,100 -800 Descending Chicago TRACON
Sun 06:59:00 PM 41.9667 -87.9000 103° East  Level FlightAware Approximate

Login

Don't have an account? Register now (free) for customized features, flight alerts, and more!